Wales, United Kingdom
Current Conditions -  °F | °C
As of 11:20 AM on Thursday 18 Dec 2014 (Local Time) from EGCN Reporting Station
Broken Clouds Broken Clouds  
Wind Chill: 57°   Ceiling: 2400
Heat Index: 57°   Visibility: 6mi
Dew Point: 52°   Wind: 26mph
Humidity: 82%   Direction: 230°SW
Pressure: 29.59"   Gusts: 39mph
Location:  53.34°N, 1.28°W
Report Text: EGCN 181120Z 23023G34KT 9999 SCT019 BKN024 14/11 Q1002
Loading
Personal Weather Stations






























Interactive Weather Map New forecast layout! Learn more

10-Day Weather Forecast

Advertisements
Track Severe Weather on mobile